createdAt,value
2023-04-07T00:01:02.948Z,12.77
2023-04-07T00:03:30.798Z,13.27
2023-04-07T00:05:58.414Z,13.38
2023-04-07T00:08:25.721Z,12.55
2023-04-07T00:10:53.260Z,11.25
2023-04-07T00:13:20.446Z,12.10
2023-04-07T00:15:48.055Z,12.60
2023-04-07T00:18:15.273Z,14.85
2023-04-07T00:20:42.728Z,13.00
2023-04-07T00:23:09.924Z,12.57
2023-04-07T00:25:37.510Z,12.82
2023-04-07T00:28:04.923Z,13.55
2023-04-07T00:30:32.441Z,21.55
2023-04-07T00:32:59.747Z,12.48
2023-04-07T00:35:27.354Z,12.50
2023-04-07T00:37:54.572Z,17.90
2023-04-07T00:40:22.819Z,13.38
2023-04-07T00:42:50.033Z,12.93
2023-04-07T00:45:17.503Z,12.73
2023-04-07T00:47:44.836Z,12.90
2023-04-07T00:50:12.552Z,13.85
2023-04-07T00:52:40.501Z,14.55
2023-04-07T00:55:08.419Z,12.80
2023-04-07T00:57:35.923Z,11.85
2023-04-07T01:00:06.844Z,17.67
2023-04-07T01:02:43.621Z,15.13
2023-04-07T01:05:20.602Z,24.35
2023-04-07T01:08:15.065Z,20.42
2023-04-07T01:10:52.174Z,30.20
2023-04-07T01:13:34.479Z,16.75
2023-04-07T01:16:13.411Z,12.07
2023-04-07T01:18:51.111Z,11.07
2023-04-07T01:21:19.800Z,12.00
2023-04-07T01:24:13.348Z,11.88
2023-04-07T01:26:42.402Z,12.07
2023-04-07T01:29:34.202Z,16.25
2023-04-07T01:32:06.371Z,11.70
2023-04-07T01:34:35.231Z,12.88
2023-04-07T01:37:03.054Z,11.02
2023-04-07T01:39:30.790Z,11.45
2023-04-07T01:41:59.316Z,11.00
2023-04-07T01:44:27.617Z,11.70
2023-04-07T01:46:57.237Z,10.82
2023-04-07T01:49:27.243Z,11.35
2023-04-07T01:51:55.402Z,12.40
2023-04-07T01:54:23.513Z,11.70
2023-04-07T01:56:51.187Z,11.18
2023-04-07T01:59:18.486Z,10.77
2023-04-07T02:01:47.131Z,11.85
2023-04-07T02:04:27.032Z,11.63
2023-04-07T02:07:06.384Z,10.90
2023-04-07T02:09:42.542Z,10.35
2023-04-07T02:12:13.070Z,10.98
2023-04-07T02:14:45.815Z,10.63
2023-04-07T02:17:16.812Z,10.98
2023-04-07T02:19:47.032Z,11.55
2023-04-07T02:22:16.603Z,10.98
2023-04-07T02:24:43.928Z,10.20
2023-04-07T02:27:11.534Z,11.52
2023-04-07T02:29:38.796Z,11.98
2023-04-07T02:32:06.913Z,11.38
2023-04-07T02:34:34.117Z,12.13
2023-04-07T02:37:01.684Z,12.13
2023-04-07T02:39:28.927Z,13.32
2023-04-07T02:41:56.907Z,14.13
2023-04-07T02:44:24.082Z,13.43
2023-04-07T02:46:51.619Z,13.02
2023-04-07T02:49:18.887Z,12.45
2023-04-07T02:51:47.113Z,13.23
2023-04-07T02:54:14.357Z,12.43
2023-04-07T02:56:42.022Z,13.00
2023-04-07T02:59:09.403Z,13.27
2023-04-07T03:01:41.692Z,13.18
2023-04-07T03:04:09.414Z,12.07
2023-04-07T03:06:36.972Z,12.30
2023-04-07T03:09:09.794Z,11.93
2023-04-07T03:11:37.687Z,13.80
2023-04-07T03:14:05.016Z,12.27
2023-04-07T03:16:33.806Z,13.93
2023-04-07T03:19:06.358Z,12.63
2023-04-07T03:21:38.635Z,13.82
2023-04-07T03:24:07.122Z,12.40
2023-04-07T03:26:35.080Z,13.68
2023-04-07T03:29:04.374Z,13.32
2023-04-07T03:31:32.363Z,14.18
2023-04-07T03:33:59.535Z,13.02
2023-04-07T03:36:28.248Z,14.13
2023-04-07T03:38:58.780Z,13.23
2023-04-07T03:41:26.321Z,13.65
2023-04-07T03:43:53.720Z,13.85
2023-04-07T03:46:21.698Z,15.25
2023-04-07T03:48:49.060Z,15.00
2023-04-07T03:51:17.395Z,14.05
2023-04-07T03:53:47.300Z,14.88
2023-04-07T03:56:28.891Z,14.85
2023-04-07T03:58:58.276Z,15.05
2023-04-07T04:01:29.962Z,14.68
2023-04-07T04:04:01.100Z,14.93
2023-04-07T04:06:31.519Z,17.65
2023-04-07T04:09:09.549Z,16.13
2023-04-07T04:11:42.826Z,13.57
2023-04-07T04:14:10.026Z,15.23
2023-04-07T04:16:38.457Z,13.50
2023-04-07T04:19:14.448Z,15.10
2023-04-07T04:21:43.239Z,14.05
2023-04-07T04:24:10.876Z,16.25
2023-04-07T04:26:38.556Z,15.73
2023-04-07T04:29:11.305Z,13.23
2023-04-07T04:31:40.814Z,14.27
2023-04-07T04:34:08.753Z,13.38
2023-04-07T04:36:37.980Z,20.27
2023-04-07T04:39:06.599Z,13.27
2023-04-07T04:41:35.854Z,14.50
2023-04-07T04:44:03.627Z,17.88
2023-04-07T04:46:32.393Z,14.32
2023-04-07T04:49:00.374Z,19.23
2023-04-07T04:51:28.058Z,14.57
2023-04-07T04:54:02.810Z,16.10
2023-04-07T04:56:30.796Z,15.45
2023-04-07T04:58:58.033Z,12.98
2023-04-07T05:01:34.370Z,14.35
2023-04-07T05:04:07.249Z,11.70
2023-04-07T05:06:35.177Z,14.23
2023-04-07T05:09:07.770Z,22.67
2023-04-07T05:11:43.478Z,16.02
2023-04-07T05:14:10.926Z,13.75
2023-04-07T05:16:43.265Z,21.52
2023-04-07T05:19:16.458Z,12.50
2023-04-07T05:21:44.419Z,14.18
2023-04-07T05:24:12.642Z,16.38
2023-04-07T05:26:40.653Z,13.80
2023-04-07T05:29:08.676Z,14.73
2023-04-07T05:31:37.517Z,15.70
2023-04-07T05:34:09.129Z,15.38
2023-04-07T05:36:43.337Z,18.95
2023-04-07T05:39:10.808Z,13.75
2023-04-07T05:41:38.370Z,15.05
2023-04-07T05:44:06.676Z,17.92
2023-04-07T05:46:38.259Z,19.38
2023-04-07T05:49:18.947Z,13.40
2023-04-07T05:51:50.434Z,15.43
2023-04-07T05:54:17.631Z,14.15
2023-04-07T05:56:45.563Z,23.27
2023-04-07T05:59:12.809Z,15.40
2023-04-07T06:01:40.481Z,18.25
2023-04-07T06:04:09.157Z,15.43
2023-04-07T06:06:36.784Z,13.07
2023-04-07T06:09:05.756Z,15.90
2023-04-07T06:11:34.456Z,24.17
2023-04-07T06:14:01.631Z,18.35
2023-04-07T06:16:29.318Z,14.88
2023-04-07T06:18:56.893Z,24.27
2023-04-07T06:21:25.580Z,14.10
2023-04-07T06:23:52.850Z,12.05
2023-04-07T06:26:21.758Z,14.65
2023-04-07T06:28:49.172Z,13.93
2023-04-07T06:31:18.111Z,13.68
2023-04-07T06:33:46.063Z,17.50
2023-04-07T06:36:14.157Z,13.48
2023-04-07T06:38:41.445Z,11.48
2023-04-07T06:41:11.837Z,14.02
2023-04-07T06:43:39.023Z,12.60
2023-04-07T06:46:08.556Z,12.50
2023-04-07T06:48:35.847Z,11.90
2023-04-07T06:51:03.635Z,13.85
2023-04-07T06:53:30.954Z,17.23
2023-04-07T06:56:08.576Z,12.43
2023-04-07T06:58:37.122Z,11.13
2023-04-07T07:01:06.303Z,15.13
2023-04-07T07:03:34.085Z,13.57
2023-04-07T07:06:02.478Z,12.95
2023-04-07T07:08:30.843Z,16.90
2023-04-07T07:10:58.782Z,14.00
2023-04-07T07:13:27.394Z,13.70
2023-04-07T07:15:55.640Z,16.13
2023-04-07T07:18:22.961Z,17.40
2023-04-07T07:20:51.153Z,16.35
2023-04-07T07:23:18.411Z,14.35
2023-04-07T07:25:46.114Z,14.82
2023-04-07T07:28:13.362Z,26.50
2023-04-07T07:30:41.688Z,18.05
2023-04-07T07:33:08.953Z,15.32
2023-04-07T07:35:38.001Z,13.40
2023-04-07T07:38:05.507Z,17.05
2023-04-07T07:40:33.459Z,15.10
2023-04-07T07:43:01.080Z,14.55
2023-04-07T07:45:28.582Z,16.98
2023-04-07T07:47:56.068Z,16.90
2023-04-07T07:50:23.782Z,14.82
2023-04-07T07:52:51.051Z,22.38
2023-04-07T07:55:18.591Z,15.00
2023-04-07T07:57:45.867Z,14.50
2023-04-07T08:00:13.948Z,15.50
2023-04-07T08:02:41.377Z,15.70
2023-04-07T08:05:09.295Z,12.57
2023-04-07T08:07:36.712Z,14.18
2023-04-07T08:10:04.423Z,14.13
2023-04-07T08:12:31.659Z,13.43
2023-04-07T08:14:59.141Z,13.90
2023-04-07T08:17:26.655Z,15.07
2023-04-07T08:19:54.254Z,17.10
2023-04-07T08:22:21.485Z,12.60
2023-04-07T08:24:49.024Z,12.85
2023-04-07T08:27:16.251Z,12.77
2023-04-07T08:29:43.761Z,12.55
2023-04-07T08:32:11.280Z,13.20
2023-04-07T08:34:38.778Z,11.25
2023-04-07T08:37:06.159Z,10.98
2023-04-07T08:39:34.161Z,11.25
2023-04-07T08:42:01.648Z,12.20
2023-04-07T08:44:30.115Z,10.55
2023-04-07T08:46:59.735Z,10.55
2023-04-07T08:49:30.026Z,10.95
2023-04-07T08:52:00.208Z,11.90
2023-04-07T08:54:28.869Z,10.73
2023-04-07T08:56:56.684Z,9.50
2023-04-07T08:59:26.848Z,10.52
2023-04-07T09:01:55.214Z,11.25
2023-04-07T09:04:25.673Z,11.50
2023-04-07T09:06:53.131Z,11.18
2023-04-07T09:09:20.878Z,11.43
2023-04-07T09:11:48.656Z,11.07
2023-04-07T09:14:16.510Z,10.40
2023-04-07T09:16:43.908Z,9.57
2023-04-07T09:19:11.468Z,9.85
2023-04-07T09:21:51.799Z,10.68
2023-04-07T09:24:23.490Z,10.02
2023-04-07T09:26:51.119Z,9.25
2023-04-07T09:29:20.761Z,9.63
2023-04-07T09:31:50.572Z,11.52
2023-04-07T09:34:24.146Z,10.80
2023-04-07T09:36:51.365Z,11.25
2023-04-07T09:39:19.667Z,10.30
2023-04-07T09:41:47.476Z,10.05
2023-04-07T09:44:15.446Z,9.35
2023-04-07T09:46:56.815Z,11.00
2023-04-07T09:49:26.113Z,11.52
2023-04-07T09:51:55.158Z,12.10
2023-04-07T09:54:36.122Z,11.98
2023-04-07T09:57:08.424Z,12.98
2023-04-07T09:59:37.863Z,12.18
2023-04-07T10:02:06.280Z,11.85
2023-04-07T10:04:34.037Z,12.60
2023-04-07T10:07:03.336Z,14.02
2023-04-07T10:09:31.238Z,13.85
2023-04-07T10:11:59.965Z,15.18
2023-04-07T10:14:31.113Z,13.93
2023-04-07T10:17:01.667Z,13.93
2023-04-07T10:19:34.714Z,13.65
2023-04-07T10:22:05.536Z,13.55
2023-04-07T10:24:55.417Z,13.85
2023-04-07T10:27:31.234Z,13.93
2023-04-07T10:30:00.411Z,14.35
2023-04-07T10:32:27.668Z,14.88
2023-04-07T10:34:55.147Z,13.93
2023-04-07T10:37:23.205Z,14.50
2023-04-07T10:39:52.847Z,15.20
2023-04-07T10:42:38.790Z,13.52
2023-04-07T10:45:10.620Z,13.73
2023-04-07T10:48:00.870Z,13.30
2023-04-07T10:50:29.393Z,12.00
2023-04-07T10:53:08.246Z,12.20
2023-04-07T10:55:44.786Z,13.00
2023-04-07T10:58:34.056Z,13.23
2023-04-07T11:01:01.699Z,13.02
2023-04-07T11:03:30.851Z,11.88
2023-04-07T11:06:08.524Z,13.13
2023-04-07T11:08:45.689Z,11.43
2023-04-07T11:11:16.687Z,11.65
2023-04-07T11:13:49.405Z,12.15
2023-04-07T11:16:19.517Z,11.88
2023-04-07T11:18:49.975Z,12.05
2023-04-07T11:21:20.303Z,10.73
2023-04-07T11:23:48.662Z,11.73
2023-04-07T11:26:16.632Z,12.38
2023-04-07T11:28:49.284Z,11.65
2023-04-07T11:31:28.194Z,11.45
2023-04-07T11:33:56.935Z,11.40
2023-04-07T11:36:38.167Z,10.77
2023-04-07T11:39:05.483Z,10.68
2023-04-07T11:41:33.929Z,11.50
2023-04-07T11:44:08.558Z,11.25
2023-04-07T11:46:36.895Z,10.63
2023-04-07T11:49:13.260Z,10.25
2023-04-07T11:51:43.334Z,9.90
2023-04-07T11:54:11.293Z,10.52
2023-04-07T11:56:44.943Z,11.43
2023-04-07T11:59:25.293Z,10.98
2023-04-07T12:01:56.149Z,11.23
2023-04-07T12:04:24.615Z,10.73
2023-04-07T12:06:52.276Z,11.00
2023-04-07T12:09:29.424Z,10.52
2023-04-07T12:11:57.907Z,10.90
2023-04-07T12:14:26.391Z,10.73
2023-04-07T12:16:56.978Z,10.80
2023-04-07T12:19:27.810Z,10.63
2023-04-07T12:21:58.631Z,12.25
2023-04-07T12:24:26.437Z,10.02
2023-04-07T12:26:54.098Z,10.07
2023-04-07T12:29:21.404Z,10.02
2023-04-07T12:31:50.864Z,11.07
2023-04-07T12:34:19.072Z,9.95
2023-04-07T12:36:47.019Z,10.68
2023-04-07T12:39:17.349Z,10.70
2023-04-07T12:41:46.199Z,10.10
2023-04-07T12:44:13.450Z,10.98
2023-04-07T12:46:41.243Z,11.05
2023-04-07T12:49:08.778Z,10.38
2023-04-07T12:51:36.529Z,10.32
2023-04-07T12:54:04.446Z,10.32
2023-04-07T12:56:32.598Z,10.48
2023-04-07T12:59:00.101Z,10.13
2023-04-07T13:01:27.834Z,10.30
2023-04-07T13:03:55.389Z,11.63
2023-04-07T13:06:22.998Z,11.02
2023-04-07T13:08:50.341Z,10.35
2023-04-07T13:11:17.898Z,10.43
2023-04-07T13:13:45.433Z,10.45
2023-04-07T13:16:13.021Z,10.75
2023-04-07T13:18:40.222Z,10.35
2023-04-07T13:21:33.722Z,10.93
2023-04-07T13:23:55.232Z,10.10
2023-04-07T13:26:23.092Z,11.60
2023-04-07T13:28:50.317Z,10.82
2023-04-07T13:31:18.213Z,11.43
2023-04-07T13:33:45.558Z,11.13
2023-04-07T13:36:13.113Z,11.32
2023-04-07T13:38:42.476Z,11.10
2023-04-07T13:41:10.077Z,12.45
2023-04-07T13:43:37.300Z,12.00
2023-04-07T13:46:07.760Z,10.82
2023-04-07T13:48:39.040Z,10.43
2023-04-07T13:51:06.538Z,10.05
2023-04-07T13:53:33.717Z,9.60
2023-04-07T13:56:01.566Z,10.15
2023-04-07T13:58:30.971Z,9.55
2023-04-07T14:00:59.490Z,9.75
2023-04-07T14:03:26.802Z,9.18
2023-04-07T14:05:54.565Z,9.13
2023-04-07T14:08:23.710Z,8.70
2023-04-07T14:10:51.480Z,9.55
2023-04-07T14:13:18.743Z,8.80
2023-04-07T14:15:48.440Z,9.48
2023-04-07T14:18:15.798Z,8.82
2023-04-07T14:20:43.541Z,9.80
2023-04-07T14:23:11.528Z,9.57
2023-04-07T14:25:39.061Z,9.02
2023-04-07T14:28:06.506Z,8.75
2023-04-07T14:30:38.808Z,10.05
2023-04-07T14:33:06.067Z,9.45
2023-04-07T14:35:33.644Z,9.65
2023-04-07T14:38:00.858Z,9.25
2023-04-07T14:40:28.338Z,9.38
2023-04-07T14:45:28.616Z,8.75
2023-04-07T14:47:56.376Z,7.85
2023-04-07T14:50:24.006Z,8.10
2023-04-07T14:52:52.208Z,7.95
2023-04-07T14:55:19.988Z,8.45
2023-04-07T14:57:47.187Z,9.20
2023-04-07T15:00:15.090Z,8.05
2023-04-07T15:02:42.659Z,8.13
2023-04-07T15:05:10.542Z,8.32
2023-04-07T15:07:37.723Z,8.93
2023-04-07T15:10:05.935Z,8.57
2023-04-07T15:12:33.493Z,8.82
2023-04-07T15:15:01.070Z,8.35
2023-04-07T15:17:42.411Z,8.38
2023-04-07T15:20:13.211Z,8.52
2023-04-07T15:22:40.769Z,8.30
2023-04-07T15:25:08.860Z,9.02
2023-04-07T15:27:36.271Z,9.18
2023-04-07T15:30:04.102Z,9.45
2023-04-07T15:32:31.989Z,9.07
2023-04-07T15:34:59.672Z,8.52
2023-04-07T15:37:26.992Z,9.15
2023-04-07T15:39:54.500Z,8.50
2023-04-07T15:42:21.664Z,8.48
2023-04-07T15:44:50.872Z,7.60
2023-04-07T15:47:18.054Z,8.80
2023-04-07T15:49:45.554Z,8.57
2023-04-07T15:52:14.090Z,8.95
2023-04-07T15:54:41.596Z,8.10
2023-04-07T15:57:08.845Z,7.85
2023-04-07T15:59:36.336Z,8.57
2023-04-07T16:02:04.000Z,9.10
2023-04-07T16:04:31.557Z,8.18
2023-04-07T16:06:58.801Z,8.30
2023-04-07T16:09:26.983Z,7.40
2023-04-07T16:11:55.036Z,7.72
2023-04-07T16:14:22.612Z,8.10
2023-04-07T16:16:53.800Z,7.68
2023-04-07T16:19:21.566Z,7.65
2023-04-07T16:21:48.857Z,8.05
2023-04-07T16:24:16.340Z,8.10
2023-04-07T16:26:43.612Z,7.18
2023-04-07T16:29:11.099Z,8.00
2023-04-07T16:31:38.320Z,7.93
2023-04-07T16:34:05.921Z,7.70
2023-04-07T16:36:33.176Z,7.53
2023-04-07T16:39:00.638Z,7.88
2023-04-07T16:41:27.966Z,7.28
2023-04-07T16:43:55.958Z,7.35
2023-04-07T16:46:26.253Z,8.25
2023-04-07T16:48:54.095Z,7.13
2023-04-07T16:51:21.981Z,7.28
2023-04-07T16:53:49.670Z,7.35
2023-04-07T16:56:22.037Z,8.63
2023-04-07T16:58:50.357Z,7.72
2023-04-07T17:01:18.421Z,8.32
2023-04-07T17:03:48.923Z,7.80
2023-04-07T17:06:16.768Z,8.13
2023-04-07T17:08:44.287Z,8.20
2023-04-07T17:11:13.257Z,7.90
2023-04-07T17:13:40.900Z,7.95
2023-04-07T17:16:13.866Z,8.23
2023-04-07T17:18:41.490Z,7.85
2023-04-07T17:21:08.669Z,8.02
2023-04-07T17:23:36.235Z,8.20
2023-04-07T17:26:03.478Z,8.65
2023-04-07T17:28:31.126Z,7.78
2023-04-07T17:30:58.709Z,8.02
2023-04-07T17:33:26.310Z,8.38
2023-04-07T17:35:53.633Z,7.68
2023-04-07T17:38:21.139Z,6.97
2023-04-07T17:40:48.310Z,7.35
2023-04-07T17:43:15.885Z,7.03
2023-04-07T17:45:43.073Z,8.18
2023-04-07T17:48:12.125Z,8.07
2023-04-07T17:50:39.504Z,7.68
2023-04-07T17:53:07.803Z,7.63
2023-04-07T17:55:35.095Z,8.18
2023-04-07T17:58:02.595Z,8.50
2023-04-07T18:00:30.124Z,8.43
2023-04-07T18:02:57.794Z,8.75
2023-04-07T18:05:26.146Z,7.80
2023-04-07T18:07:54.936Z,8.00
2023-04-07T18:10:22.247Z,9.02
2023-04-07T18:12:49.792Z,8.07
2023-04-07T18:15:17.346Z,8.25
2023-04-07T18:17:44.927Z,8.13
2023-04-07T18:20:13.184Z,7.97
2023-04-07T18:22:40.980Z,7.82
2023-04-07T18:25:09.643Z,7.53
2023-04-07T18:27:37.855Z,7.43
2023-04-07T18:30:06.166Z,6.55
2023-04-07T18:32:33.753Z,6.80
2023-04-07T18:35:01.364Z,7.88
2023-04-07T18:37:29.725Z,6.80
2023-04-07T18:39:56.950Z,7.50
2023-04-07T18:42:24.554Z,7.35
2023-04-07T18:44:51.817Z,7.45
2023-04-07T18:47:19.362Z,6.60
2023-04-07T18:49:46.602Z,6.68
2023-04-07T18:52:14.217Z,6.68
2023-04-07T18:54:41.478Z,6.50
2023-04-07T18:57:09.003Z,6.63
2023-04-07T18:59:36.563Z,7.28
2023-04-07T19:02:04.158Z,5.90
2023-04-07T19:04:31.486Z,6.85
2023-04-07T19:06:59.193Z,6.72
2023-04-07T19:09:26.430Z,6.90
2023-04-07T19:11:53.933Z,6.38
2023-04-07T19:14:21.188Z,7.32
2023-04-07T19:16:48.806Z,7.20
2023-04-07T19:19:17.415Z,7.13
2023-04-07T19:21:45.029Z,7.38
2023-04-07T19:24:12.260Z,7.28
2023-04-07T19:26:39.850Z,7.22
2023-04-07T19:29:07.268Z,8.10
2023-04-07T19:31:35.385Z,7.22
2023-04-07T19:34:02.670Z,8.68
2023-04-07T19:36:31.394Z,7.80
2023-04-07T19:38:58.599Z,7.43
2023-04-07T19:41:26.194Z,8.43
2023-04-07T19:43:53.503Z,8.07
2023-04-07T19:46:21.026Z,9.20
2023-04-07T19:48:48.695Z,7.85
2023-04-07T19:51:16.779Z,9.05
2023-04-07T19:53:43.969Z,9.32
2023-04-07T19:56:12.612Z,9.95
2023-04-07T19:58:39.882Z,10.40
2023-04-07T20:01:16.189Z,9.77
2023-04-07T20:03:44.232Z,8.43
2023-04-07T20:06:14.611Z,8.68
2023-04-07T20:08:42.343Z,9.07
2023-04-07T20:11:13.065Z,9.13
2023-04-07T20:13:41.603Z,7.93
2023-04-07T20:16:09.140Z,9.52
2023-04-07T20:18:36.695Z,9.05
2023-04-07T20:21:07.619Z,9.35
2023-04-07T20:23:34.854Z,8.75
2023-04-07T20:26:02.533Z,8.85
2023-04-07T20:28:30.816Z,9.10
2023-04-07T20:30:58.478Z,8.73
2023-04-07T20:33:25.777Z,9.38
2023-04-07T20:35:53.398Z,9.23
2023-04-07T20:38:20.738Z,9.23
2023-04-07T20:40:48.330Z,9.82
2023-04-07T20:43:18.162Z,9.60
2023-04-07T20:45:47.578Z,11.05
2023-04-07T20:48:17.166Z,10.10
2023-04-07T20:50:44.912Z,9.40
2023-04-07T20:53:13.538Z,10.55
2023-04-07T20:55:41.338Z,9.00
2023-04-07T20:58:08.602Z,9.43
2023-04-07T21:00:36.731Z,9.85
2023-04-07T21:03:04.101Z,9.85
2023-04-07T21:05:31.809Z,9.95
2023-04-07T21:07:59.329Z,9.50
2023-04-07T21:10:26.866Z,10.98
2023-04-07T21:12:54.089Z,9.70
2023-04-07T21:15:21.622Z,9.85
2023-04-07T21:17:48.970Z,10.15
2023-04-07T21:20:16.664Z,10.02
2023-04-07T21:22:44.330Z,9.90
2023-04-07T21:25:12.892Z,9.57
2023-04-07T21:27:41.374Z,9.20
2023-04-07T21:30:09.310Z,9.82
2023-04-07T21:32:36.830Z,9.93
2023-04-07T21:35:04.669Z,9.57
2023-04-07T21:37:31.885Z,10.35
2023-04-07T21:39:59.413Z,10.32
2023-04-07T21:42:26.624Z,9.68
2023-04-07T21:44:54.145Z,10.50
2023-04-07T21:47:21.698Z,10.23
2023-04-07T21:49:49.255Z,11.30
2023-04-07T21:52:19.947Z,11.30
2023-04-07T21:54:47.649Z,10.90
2023-04-07T21:57:14.925Z,10.38
2023-04-07T21:59:42.483Z,11.52
2023-04-07T22:02:10.096Z,11.10
2023-04-07T22:04:38.014Z,10.73
2023-04-07T22:07:05.197Z,12.32
2023-04-07T22:09:32.749Z,11.07
2023-04-07T22:12:00.049Z,11.95
2023-04-07T22:14:27.590Z,11.82
2023-04-07T22:16:55.216Z,11.80
2023-04-07T22:19:22.833Z,12.15
2023-04-07T22:21:49.981Z,11.75
2023-04-07T22:24:17.443Z,12.02
2023-04-07T22:26:44.720Z,12.25
2023-04-07T22:29:12.252Z,11.88
2023-04-07T22:31:39.628Z,11.30
2023-04-07T22:34:08.422Z,12.38
2023-04-07T22:36:36.523Z,11.98
2023-04-07T22:39:04.123Z,10.50
2023-04-07T22:41:31.674Z,12.50
2023-04-07T22:43:59.256Z,10.93
2023-04-07T22:46:26.507Z,12.05
2023-04-07T22:48:54.296Z,11.43
2023-04-07T22:51:22.124Z,11.90
2023-04-07T22:53:49.962Z,11.57
2023-04-07T22:56:17.145Z,10.98
2023-04-07T22:58:44.611Z,11.48
2023-04-07T23:01:11.997Z,12.15
2023-04-07T23:03:39.697Z,12.02
2023-04-07T23:06:06.975Z,11.18
2023-04-07T23:08:34.477Z,12.65
2023-04-07T23:11:02.012Z,12.57
2023-04-07T23:13:29.661Z,12.25
2023-04-07T23:15:58.169Z,13.07
2023-04-07T23:18:25.871Z,14.05
2023-04-07T23:20:53.247Z,12.95
2023-04-07T23:23:20.801Z,13.88
2023-04-07T23:25:48.050Z,13.32
2023-04-07T23:28:15.603Z,13.30
2023-04-07T23:30:42.878Z,12.15
2023-04-07T23:33:10.408Z,13.57
2023-04-07T23:35:37.645Z,13.85
2023-04-07T23:38:05.748Z,14.23
2023-04-07T23:40:32.978Z,14.65
2023-04-07T23:43:00.609Z,13.65
2023-04-07T23:45:27.985Z,14.88
2023-04-07T23:47:55.701Z,14.70
2023-04-07T23:50:23.118Z,14.07
2023-04-07T23:52:50.968Z,15.50
2023-04-07T23:55:18.245Z,15.40
2023-04-07T23:57:45.858Z,14.75
